Time;durP1;ratioP1;P1;durP2;ratioP2;P2;SDS_P1;SDS_P2;PMS_P1;PMS_P2;Temp;Humidity;BMP_temperature;BMP_pressure;BME280_temperature;BME280_humidity;BME280_pressure;Samples;Min_cycle;Max_cycle;Signal;HPM_P1;HPM_P2
2023/08/06 00:00:22;;;;;;;22.63;5.30;;;18.60;99.90;;;;;;5052710;28;20033;-61
2023/08/06 00:02:48;;;;;;;16.60;4.60;;;18.50;99.90;;;;;;5053693;28;20116;-61
2023/08/06 00:05:17;;;;;;;17.30;4.70;;;18.50;99.90;;;;;;5053842;28;20025;-61
2023/08/06 00:07:44;;;;;;;18.63;4.45;;;18.40;99.90;;;;;;5053459;28;20064;-61
2023/08/06 00:10:10;;;;;;;20.83;5.00;;;18.30;99.90;;;;;;5053805;28;20087;-61
2023/08/06 00:12:36;;;;;;;17.60;4.20;;;18.30;99.90;;;;;;5053596;28;20029;-61
2023/08/06 00:15:02;;;;;;;18.05;4.85;;;18.30;99.90;;;;;;5053617;28;20108;-61
2023/08/06 00:17:28;;;;;;;21.58;4.75;;;18.40;99.90;;;;;;5053696;28;20044;-61
2023/08/06 00:19:53;;;;;;;17.35;4.63;;;18.50;99.90;;;;;;5053816;28;20025;-61
2023/08/06 00:22:19;;;;;;;20.35;5.43;;;18.70;99.90;;;;;;5053118;28;20437;-60
2023/08/06 00:24:45;;;;;;;21.30;5.22;;;18.80;99.90;;;;;;5053333;28;20529;-61
2023/08/06 00:27:10;;;;;;;16.15;4.65;;;18.90;99.90;;;;;;5053519;28;20033;-61
2023/08/06 00:29:36;;;;;;;20.77;4.85;;;19.00;99.90;;;;;;5053813;28;20036;-61
2023/08/06 00:32:02;;;;;;;17.45;4.80;;;19.10;99.90;;;;;;5053385;28;20025;-61
2023/08/06 00:34:27;;;;;;;19.35;4.32;;;19.00;99.90;;;;;;5053183;28;20048;-61
2023/08/06 00:36:54;;;;;;;18.60;5.03;;;19.10;99.90;;;;;;5052971;28;20036;-61
2023/08/06 00:39:19;;;;;;;19.17;4.63;;;19.20;99.90;;;;;;5053694;28;20111;-60
2023/08/06 00:41:45;;;;;;;17.77;4.80;;;19.20;99.90;;;;;;5053116;28;20032;-60
2023/08/06 00:44:11;;;;;;;17.73;5.25;;;19.20;99.90;;;;;;5053178;28;20111;-61
2023/08/06 00:46:36;;;;;;;23.83;6.30;;;19.20;99.90;;;;;;5053066;28;20025;-61
2023/08/06 00:49:02;;;;;;;23.05;5.60;;;19.10;99.90;;;;;;5053242;28;20049;-61
2023/08/06 00:51:28;;;;;;;17.27;4.75;;;18.90;99.90;;;;;;5052566;28;20466;-61
2023/08/06 00:53:55;;;;;;;19.70;5.47;;;18.80;99.90;;;;;;5053080;28;20129;-60
2023/08/06 00:56:21;;;;;;;17.10;4.68;;;18.70;99.90;;;;;;5052952;28;20033;-61
2023/08/06 00:58:47;;;;;;;16.63;4.13;;;18.60;99.90;;;;;;5052794;28;20207;-61
2023/08/06 01:01:12;;;;;;;19.80;4.88;;;18.50;99.90;;;;;;5052969;28;20029;-60
2023/08/06 01:03:38;;;;;;;18.20;4.68;;;18.60;99.90;;;;;;5053042;28;20512;-61
2023/08/06 01:06:05;;;;;;;15.57;4.20;;;18.60;99.90;;;;;;5052484;28;20032;-61
2023/08/06 01:08:44;;;;;;;17.23;4.68;;;18.50;99.90;;;;;;5052678;28;20025;-61
2023/08/06 01:11:37;;;;;;;17.60;3.92;;;18.50;99.90;;;;;;5052532;28;20498;-61
2023/08/06 01:14:18;;;;;;;18.27;4.53;;;18.40;99.90;;;;;;5052544;28;20402;-61
2023/08/06 01:16:44;;;;;;;15.18;3.97;;;18.40;99.90;;;;;;5052406;28;20025;-62
2023/08/06 01:19:19;;;;;;;13.63;3.72;;;18.30;99.90;;;;;;5052875;28;20501;-61
2023/08/06 01:21:44;;;;;;;15.25;4.00;;;18.30;99.90;;;;;;5052434;28;20039;-61
2023/08/06 01:24:11;;;;;;;14.88;3.83;;;18.30;99.90;;;;;;5052518;28;20033;-61
2023/08/06 01:26:48;;;;;;;18.98;4.50;;;18.40;99.90;;;;;;5052435;28;20025;-61
2023/08/06 01:29:23;;;;;;;18.20;4.38;;;18.30;99.90;;;;;;5052147;28;20078;-61
2023/08/06 01:31:52;;;;;;;13.75;3.80;;;18.30;99.90;;;;;;5052547;28;20036;-61
2023/08/06 01:34:23;;;;;;;13.63;3.85;;;18.30;99.90;;;;;;5051784;28;20033;-61
2023/08/06 01:36:50;;;;;;;16.15;3.92;;;18.40;99.90;;;;;;5052140;28;20024;-61
2023/08/06 01:39:16;;;;;;;11.63;3.78;;;18.60;99.90;;;;;;5052176;28;20055;-60
2023/08/06 01:41:41;;;;;;;14.32;4.22;;;18.60;99.90;;;;;;5051873;28;20052;-61
2023/08/06 01:44:07;;;;;;;17.73;4.18;;;18.80;99.90;;;;;;5052072;28;20029;-61
2023/08/06 01:46:33;;;;;;;17.10;4.32;;;18.80;99.90;;;;;;5051887;28;20367;-61
2023/08/06 01:48:58;;;;;;;15.82;4.00;;;18.80;99.90;;;;;;5052002;28;20070;-61
2023/08/06 01:51:24;;;;;;;15.32;3.65;;;18.90;99.90;;;;;;5051774;28;20490;-60
2023/08/06 01:53:50;;;;;;;16.80;4.25;;;19.00;99.90;;;;;;5051918;28;20053;-61
2023/08/06 01:56:15;;;;;;;14.25;3.78;;;18.90;99.90;;;;;;5051877;28;20102;-60
2023/08/06 01:58:41;;;;;;;12.88;4.07;;;18.90;99.90;;;;;;5051894;28;20032;-61
2023/08/06 02:01:07;;;;;;;13.30;4.03;;;18.90;99.90;;;;;;5051623;28;20037;-61
2023/08/06 02:03:32;;;;;;;15.40;4.03;;;18.90;99.90;;;;;;5051691;28;20036;-60
2023/08/06 02:05:58;;;;;;;14.43;3.72;;;19.00;99.90;;;;;;5051655;28;20545;-61
2023/08/06 02:08:23;;;;;;;14.05;3.72;;;18.70;99.90;;;;;;5050326;28;20082;-61
2023/08/06 02:10:49;;;;;;;14.20;4.05;;;18.60;99.90;;;;;;5051842;28;20064;-61
2023/08/06 02:13:15;;;;;;;15.88;3.50;;;18.50;99.90;;;;;;5051414;28;20032;-61
2023/08/06 02:15:45;;;;;;;17.75;4.05;;;18.40;99.90;;;;;;5051410;28;20029;-61
2023/08/06 02:18:11;;;;;;;13.32;4.32;;;18.30;99.90;;;;;;5051039;28;20458;-61
2023/08/06 02:20:36;;;;;;;15.27;4.20;;;18.20;99.90;;;;;;5051660;28;20128;-60
2023/08/06 02:23:02;;;;;;;17.20;4.13;;;18.10;99.90;;;;;;5050683;28;20079;-60
2023/08/06 02:25:28;;;;;;;13.82;4.45;;;18.10;99.90;;;;;;5051108;28;20049;-61
2023/08/06 02:27:53;;;;;;;14.43;3.97;;;18.00;99.90;;;;;;5051340;28;20033;-61
2023/08/06 02:30:19;;;;;;;20.27;4.40;;;18.00;99.90;;;;;;5051435;28;20021;-61
2023/08/06 02:32:45;;;;;;;16.83;4.15;;;18.00;99.90;;;;;;5050850;28;20029;-61
2023/08/06 02:35:10;;;;;;;15.95;4.03;;;17.90;99.90;;;;;;5051350;28;20033;-61
2023/08/06 02:37:36;;;;;;;14.95;3.92;;;17.90;99.90;;;;;;5051260;28;20100;-61
2023/08/06 02:40:02;;;;;;;19.83;4.45;;;17.80;99.90;;;;;;5051442;28;20029;-60
2023/08/06 02:42:28;;;;;;;15.85;3.92;;;17.90;99.90;;;;;;5051005;28;20039;-60
2023/08/06 02:44:56;;;;;;;13.65;3.90;;;18.00;99.90;;;;;;5050992;28;20025;-61
2023/08/06 02:47:22;;;;;;;16.10;3.85;;;18.00;99.90;;;;;;5050779;28;20107;-61
2023/08/06 02:49:47;;;;;;;12.70;3.72;;;18.10;99.90;;;;;;5051607;28;20025;-61
2023/08/06 02:52:13;;;;;;;10.88;3.10;;;18.00;99.90;;;;;;5051074;28;20508;-60
2023/08/06 02:54:39;;;;;;;17.08;3.72;;;18.10;99.90;;;;;;5050996;28;20098;-61
2023/08/06 02:57:05;;;;;;;15.93;4.20;;;18.30;99.90;;;;;;5051022;28;20021;-60
2023/08/06 02:59:32;;;;;;;13.10;3.50;;;18.40;99.90;;;;;;5050840;28;20029;-61
2023/08/06 03:01:57;;;;;;;13.27;3.90;;;18.50;99.90;;;;;;5050560;28;20033;-61
2023/08/06 03:04:24;;;;;;;13.70;3.47;;;18.60;99.90;;;;;;5051401;28;20025;-60
2023/08/06 03:06:50;;;;;;;12.63;3.42;;;18.50;99.90;;;;;;5050868;28;20506;-60
2023/08/06 03:09:16;;;;;;;16.92;3.63;;;18.70;99.90;;;;;;5051461;28;20371;-60
2023/08/06 03:11:42;;;;;;;15.35;3.90;;;18.70;99.90;;;;;;5050811;28;20576;-61
2023/08/06 03:14:08;;;;;;;12.82;3.47;;;18.60;99.90;;;;;;5050630;28;20061;-60
2023/08/06 03:16:34;;;;;;;14.57;3.80;;;18.70;99.90;;;;;;5050565;28;20057;-60
2023/08/06 03:19:00;;;;;;;13.25;3.50;;;18.70;99.90;;;;;;5050664;28;20388;-61
2023/08/06 03:21:26;;;;;;;13.60;3.60;;;18.80;99.90;;;;;;5050969;28;20021;-60
2023/08/06 03:23:51;;;;;;;13.75;3.50;;;18.70;99.90;;;;;;5050721;28;20117;-61
2023/08/06 03:26:17;;;;;;;15.40;3.67;;;18.60;99.90;;;;;;5050950;28;20444;-61
2023/08/06 03:28:43;;;;;;;15.20;3.80;;;18.40;99.90;;;;;;5050597;28;20047;-61
2023/08/06 03:31:09;;;;;;;11.63;3.58;;;18.20;99.90;;;;;;5050448;28;20029;-61
2023/08/06 03:33:34;;;;;;;10.75;2.92;;;18.10;99.90;;;;;;5051849;28;20079;-61
2023/08/06 03:36:00;;;;;;;10.38;3.50;;;18.00;99.90;;;;;;5054514;28;20048;-61
2023/08/06 03:38:26;;;;;;;14.32;3.92;;;18.10;99.90;;;;;;5054796;28;20028;-61
2023/08/06 03:40:51;;;;;;;12.68;3.45;;;18.10;99.90;;;;;;5054249;28;20413;-61
2023/08/06 03:43:17;;;;;;;14.70;3.60;;;17.90;99.90;;;;;;5054305;28;20037;-61
2023/08/06 03:45:43;;;;;;;12.05;3.10;;;17.80;99.90;;;;;;5054216;28;20074;-61
2023/08/06 03:48:09;;;;;;;13.32;3.53;;;17.80;99.90;;;;;;5054352;28;20032;-61
2023/08/06 03:50:35;;;;;;;10.93;3.10;;;17.80;99.90;;;;;;5054223;28;20441;-60
2023/08/06 03:53:01;;;;;;;10.73;3.42;;;17.80;99.90;;;;;;5054098;28;20025;-61
2023/08/06 03:55:27;;;;;;;10.65;3.28;;;17.70;99.90;;;;;;5052920;28;20047;-61
2023/08/06 03:57:53;;;;;;;15.10;3.28;;;17.80;99.90;;;;;;5054417;28;20474;-61
2023/08/06 04:00:19;;;;;;;13.27;3.60;;;17.80;99.90;;;;;;5053749;28;20096;-61
2023/08/06 04:02:44;;;;;;;10.63;3.20;;;17.80;99.90;;;;;;5053736;28;20033;-61
2023/08/06 04:05:10;;;;;;;8.85;2.80;;;17.70;99.90;;;;;;5053920;28;20154;-61
2023/08/06 04:07:36;;;;;;;10.93;3.15;;;17.70;99.90;;;;;;5054196;28;20025;-61
2023/08/06 04:10:04;;;;;;;12.57;3.10;;;17.80;99.90;;;;;;5053829;28;20063;-61
2023/08/06 04:12:30;;;;;;;13.40;3.40;;;17.80;99.90;;;;;;5053717;28;20029;-61
2023/08/06 04:14:58;;;;;;;13.52;3.28;;;18.10;99.90;;;;;;5053237;28;20036;-61
2023/08/06 04:17:23;;;;;;;11.52;3.20;;;18.30;99.90;;;;;;5053714;28;20079;-61
2023/08/06 04:19:50;;;;;;;12.55;3.40;;;18.40;99.90;;;;;;5053924;28;20029;-61
2023/08/06 04:22:16;;;;;;;11.60;3.20;;;18.50;99.90;;;;;;5053468;28;20047;-60
2023/08/06 04:24:45;;;;;;;10.77;2.80;;;18.40;99.90;;;;;;5053539;28;20053;-61
2023/08/06 04:27:12;;;;;;;11.50;3.63;;;18.50;99.90;;;;;;5053556;28;20033;-60
2023/08/06 04:29:37;;;;;;;12.85;3.33;;;18.70;99.90;;;;;;5053229;28;20037;-60
2023/08/06 04:32:08;;;;;;;11.75;3.65;;;18.80;99.90;;;;;;5053789;28;20083;-60
2023/08/06 04:34:34;;;;;;;9.40;2.72;;;18.60;99.90;;;;;;5053475;28;20021;-60
2023/08/06 04:37:00;;;;;;;10.13;3.33;;;18.70;99.90;;;;;;5053498;28;20036;-61
2023/08/06 04:39:26;;;;;;;15.25;3.88;;;18.80;99.90;;;;;;5053394;28;20040;-61
2023/08/06 04:41:51;;;;;;;13.98;3.75;;;18.70;99.90;;;;;;5053214;28;20045;-61
2023/08/06 04:44:17;;;;;;;15.60;3.80;;;18.40;99.90;;;;;;5053038;28;20021;-61
2023/08/06 04:46:43;;;;;;;13.13;3.60;;;18.40;99.90;;;;;;5052432;28;20389;-61
2023/08/06 04:49:09;;;;;;;13.90;3.40;;;18.20;99.90;;;;;;5051801;28;20028;-61
2023/08/06 04:51:35;;;;;;;12.40;3.15;;;18.10;99.90;;;;;;5053048;28;20112;-61
2023/08/06 04:54:00;;;;;;;12.75;3.30;;;18.20;99.90;;;;;;5053409;28;20057;-61
2023/08/06 04:56:26;;;;;;;14.07;3.60;;;18.10;99.90;;;;;;5053037;28;20039;-61
2023/08/06 04:58:52;;;;;;;16.02;3.33;;;18.00;99.90;;;;;;5052598;28;20447;-61
2023/08/06 05:01:18;;;;;;;11.88;3.33;;;17.90;99.90;;;;;;5052816;28;20108;-61
2023/08/06 05:03:43;;;;;;;12.55;3.22;;;17.90;99.90;;;;;;5052816;28;20374;-61
2023/08/06 05:06:10;;;;;;;11.63;3.10;;;17.90;99.90;;;;;;5052769;28;20048;-61
2023/08/06 05:08:36;;;;;;;10.20;3.30;;;17.80;99.90;;;;;;5053019;28;20057;-61
2023/08/06 05:11:01;;;;;;;15.15;3.55;;;17.80;99.90;;;;;;5052588;28;20650;-61
2023/08/06 05:13:27;;;;;;;10.07;3.30;;;17.80;99.90;;;;;;5052137;28;20446;-61
2023/08/06 05:15:56;;;;;;;11.18;3.38;;;17.80;99.90;;;;;;5052863;28;20075;-61
2023/08/06 05:18:22;;;;;;;13.70;3.58;;;17.80;99.90;;;;;;5052551;28;20502;-61
2023/08/06 05:20:48;;;;;;;10.60;2.85;;;17.90;99.90;;;;;;5052433;28;20029;-61
2023/08/06 05:23:14;;;;;;;10.65;3.17;;;17.80;99.90;;;;;;5051341;28;20087;-61
2023/08/06 05:25:39;;;;;;;12.45;3.17;;;17.80;99.90;;;;;;5052246;28;20076;-61
2023/08/06 05:28:06;;;;;;;10.00;3.10;;;17.80;99.90;;;;;;5052040;28;20032;-61
2023/08/06 05:30:31;;;;;;;9.95;2.95;;;17.80;99.90;;;;;;5052348;28;20486;-60
2023/08/06 05:32:57;;;;;;;13.27;2.95;;;18.20;99.90;;;;;;5052238;28;20031;-61
2023/08/06 05:35:23;;;;;;;11.60;2.88;;;18.30;99.90;;;;;;5052507;28;20543;-61
2023/08/06 05:37:50;;;;;;;10.18;3.42;;;18.40;99.90;;;;;;5052172;28;20021;-61
2023/08/06 05:40:16;;;;;;;13.27;3.22;;;18.60;99.90;;;;;;5051780;28;20041;-61
2023/08/06 05:42:41;;;;;;;10.43;3.08;;;18.60;99.90;;;;;;5051941;28;20043;-61
2023/08/06 05:45:08;;;;;;;12.20;2.97;;;18.60;99.90;;;;;;5052126;28;20444;-61
2023/08/06 05:47:33;;;;;;;12.05;3.25;;;18.70;99.90;;;;;;5052341;28;20036;-61
2023/08/06 05:49:59;;;;;;;11.43;3.00;;;18.80;99.90;;;;;;5050624;28;20029;-61
2023/08/06 05:52:25;;;;;;;11.73;2.88;;;18.80;99.90;;;;;;5052101;28;20078;-61
2023/08/06 05:54:50;;;;;;;10.73;3.05;;;18.80;99.90;;;;;;5050352;28;20170;-61
2023/08/06 05:57:17;;;;;;;11.77;3.10;;;18.80;99.90;;;;;;5051026;28;20029;-61
2023/08/06 05:59:43;;;;;;;10.65;3.33;;;18.80;99.90;;;;;;5051734;28;20029;-60
2023/08/06 06:02:08;;;;;;;10.80;3.15;;;18.70;99.90;;;;;;5051646;28;20043;-61
2023/08/06 06:04:34;;;;;;;12.68;3.10;;;18.60;99.90;;;;;;5051662;28;20028;-61
2023/08/06 06:07:00;;;;;;;10.65;3.17;;;18.50;99.90;;;;;;5051586;28;20033;-61
2023/08/06 06:09:26;;;;;;;14.68;3.53;;;18.50;99.90;;;;;;5051260;28;20025;-60
2023/08/06 06:11:51;;;;;;;9.95;2.80;;;18.40;99.90;;;;;;5051736;28;20025;-61
2023/08/06 06:14:18;;;;;;;9.35;2.90;;;18.30;99.90;;;;;;5051458;28;20078;-61
2023/08/06 06:16:44;;;;;;;9.45;3.10;;;18.30;99.90;;;;;;5051446;28;20029;-61
2023/08/06 06:19:09;;;;;;;11.93;3.20;;;18.20;99.90;;;;;;5051396;28;20025;-61
2023/08/06 06:21:35;;;;;;;11.95;3.67;;;18.20;99.90;;;;;;5051647;28;20064;-61
2023/08/06 06:24:01;;;;;;;14.32;3.83;;;18.20;99.90;;;;;;5050850;28;20446;-61
2023/08/06 06:26:26;;;;;;;10.23;3.28;;;18.10;99.90;;;;;;5051553;28;20028;-61
2023/08/06 06:28:52;;;;;;;12.07;3.20;;;18.10;99.90;;;;;;5051737;28;20086;-61
2023/08/06 06:31:18;;;;;;;12.80;3.30;;;18.20;99.90;;;;;;5050955;28;20104;-61
2023/08/06 06:33:43;;;;;;;12.27;3.67;;;18.20;99.90;;;;;;5051628;28;20441;-61
2023/08/06 06:36:09;;;;;;;10.43;3.05;;;18.10;99.90;;;;;;5051058;28;20124;-60
2023/08/06 06:38:35;;;;;;;12.30;3.78;;;18.10;99.90;;;;;;5050871;28;20021;-61
2023/08/06 06:41:03;;;;;;;11.05;3.20;;;18.20;99.90;;;;;;5050992;28;20029;-61
2023/08/06 06:43:28;;;;;;;11.18;3.28;;;18.20;99.90;;;;;;5051155;28;20115;-61
2023/08/06 06:45:59;;;;;;;11.93;3.35;;;18.20;99.90;;;;;;5051303;28;20024;-60
2023/08/06 06:48:28;;;;;;;12.27;3.33;;;18.40;99.90;;;;;;5051477;28;20025;-60
2023/08/06 06:50:55;;;;;;;11.38;3.35;;;18.70;99.90;;;;;;5050838;28;20029;-61
2023/08/06 06:53:21;;;;;;;10.73;3.50;;;18.80;99.90;;;;;;5050812;28;20040;-61
2023/08/06 06:55:49;;;;;;;11.45;3.67;;;18.90;99.90;;;;;;5050968;28;20036;-60
2023/08/06 06:58:16;;;;;;;14.40;3.30;;;18.90;99.90;;;;;;5051350;28;20018;-61
2023/08/06 07:00:42;;;;;;;11.77;2.90;;;19.00;99.90;;;;;;5050912;28;20029;-61
2023/08/06 07:03:07;;;;;;;14.55;3.17;;;19.00;99.90;;;;;;5050939;28;20045;-61
2023/08/06 07:05:33;;;;;;;12.15;3.30;;;19.10;99.90;;;;;;5050921;28;20608;-61
2023/08/06 07:07:59;;;;;;;11.90;3.10;;;19.20;99.90;;;;;;5051150;28;20440;-61
2023/08/06 07:10:28;;;;;;;9.98;3.40;;;19.20;99.90;;;;;;5053753;28;20057;-61
2023/08/06 07:12:54;;;;;;;16.50;4.13;;;19.20;99.90;;;;;;5054942;28;20451;-60
2023/08/06 07:15:20;;;;;;;13.25;3.30;;;19.10;99.90;;;;;;5055246;28;20037;-61
2023/08/06 07:17:45;;;;;;;9.32;3.10;;;19.00;99.90;;;;;;5054983;28;20541;-61
2023/08/06 07:20:11;;;;;;;11.38;3.47;;;18.80;99.90;;;;;;5054572;28;20075;-61
2023/08/06 07:22:37;;;;;;;12.63;3.42;;;18.80;99.90;;;;;;5054437;28;20047;-61
2023/08/06 07:25:03;;;;;;;11.45;3.58;;;18.70;99.90;;;;;;5054974;28;20045;-61
2023/08/06 07:27:28;;;;;;;13.02;3.70;;;18.60;99.90;;;;;;5054336;28;20037;-61
2023/08/06 07:29:54;;;;;;;10.68;3.25;;;18.70;99.90;;;;;;5054868;28;20071;-60
2023/08/06 07:32:20;;;;;;;9.85;3.15;;;18.70;99.90;;;;;;5054505;28;20199;-61
2023/08/06 07:34:45;;;;;;;11.13;3.13;;;18.70;99.90;;;;;;5054286;28;20028;-61
2023/08/06 07:37:11;;;;;;;9.77;3.00;;;18.70;99.90;;;;;;5054176;28;20075;-61
2023/08/06 07:39:39;;;;;;;10.32;3.28;;;18.60;99.90;;;;;;5054464;28;20086;-61
2023/08/06 07:42:06;;;;;;;12.93;3.78;;;18.60;99.90;;;;;;5054699;28;20060;-61
2023/08/06 07:44:32;;;;;;;12.40;3.38;;;18.70;99.90;;;;;;5054260;28;20082;-61
2023/08/06 07:46:58;;;;;;;10.88;3.45;;;18.70;99.90;;;;;;5054272;28;20032;-61
2023/08/06 07:49:24;;;;;;;12.88;3.30;;;18.70;99.90;;;;;;5054302;28;20021;-60
2023/08/06 07:51:51;;;;;;;10.77;3.15;;;18.60;99.90;;;;;;5054277;28;20029;-61
2023/08/06 07:54:17;;;;;;;15.18;3.45;;;18.60;99.90;;;;;;5054001;28;20078;-61
2023/08/06 07:56:43;;;;;;;11.13;3.42;;;18.60;99.90;;;;;;5054055;28;20112;-61
2023/08/06 07:59:09;;;;;;;11.35;3.72;;;18.70;99.90;;;;;;5054155;28;20032;-61
2023/08/06 08:01:35;;;;;;;13.40;3.60;;;18.70;99.90;;;;;;5054186;28;20044;-61
2023/08/06 08:04:00;;;;;;;13.88;4.13;;;18.80;99.90;;;;;;5054030;28;20029;-60
2023/08/06 08:06:26;;;;;;;9.90;3.15;;;19.10;99.90;;;;;;5053633;28;20028;-60
2023/08/06 08:08:52;;;;;;;11.07;2.92;;;19.10;99.90;;;;;;5054202;28;20029;-61
2023/08/06 08:11:18;;;;;;;12.48;3.88;;;19.30;99.90;;;;;;5053830;28;20045;-61
2023/08/06 08:13:44;;;;;;;12.23;3.30;;;19.50;99.90;;;;;;5053687;28;20381;-60
2023/08/06 08:16:10;;;;;;;14.18;3.50;;;19.50;99.90;;;;;;5054041;28;20029;-60
2023/08/06 08:18:35;;;;;;;15.00;3.53;;;19.70;99.90;;;;;;5053633;28;20311;-60
2023/08/06 08:21:01;;;;;;;12.52;3.17;;;19.70;99.90;;;;;;5052100;28;20427;-61
2023/08/06 08:23:27;;;;;;;11.82;3.05;;;19.70;99.90;;;;;;5053585;28;20071;-60
2023/08/06 08:25:52;;;;;;;8.50;2.95;;;19.80;99.90;;;;;;5053419;28;20445;-60
2023/08/06 08:28:18;;;;;;;12.93;3.40;;;19.90;99.90;;;;;;5053769;28;20029;-60
2023/08/06 08:30:44;;;;;;;9.32;3.00;;;19.80;99.90;;;;;;5053302;28;20071;-60
2023/08/06 08:33:10;;;;;;;10.05;3.15;;;19.90;99.90;;;;;;5053397;28;20409;-61
2023/08/06 08:35:36;;;;;;;9.48;3.10;;;19.80;99.90;;;;;;5053431;28;20055;-61
2023/08/06 08:38:02;;;;;;;12.02;3.35;;;19.80;99.90;;;;;;5053336;28;20025;-60
2023/08/06 08:40:32;;;;;;;11.68;2.90;;;19.60;99.90;;;;;;5053299;28;20048;-60
2023/08/06 08:42:59;;;;;;;12.25;2.90;;;19.50;99.90;;;;;;5053093;28;20041;-61
2023/08/06 08:45:28;;;;;;;10.60;2.80;;;19.30;99.90;;;;;;5053239;28;20032;-61
2023/08/06 08:47:54;;;;;;;9.65;3.80;;;19.20;99.90;;;;;;5053067;28;20029;-60
2023/08/06 08:50:21;;;;;;;10.18;2.97;;;19.20;99.90;;;;;;5051876;28;20081;-61
2023/08/06 08:52:50;;;;;;;11.70;3.28;;;19.00;99.90;;;;;;5051782;28;20446;-61
2023/08/06 08:55:16;;;;;;;11.55;3.38;;;18.90;99.90;;;;;;5053048;28;20025;-61
2023/08/06 08:57:42;;;;;;;8.02;2.55;;;18.80;99.90;;;;;;5052985;28;20028;-61
2023/08/06 09:00:08;;;;;;;10.05;3.00;;;18.80;99.90;;;;;;5052948;28;20406;-61
2023/08/06 09:02:35;;;;;;;10.50;2.85;;;18.90;99.90;;;;;;5053093;28;20055;-60
2023/08/06 09:05:03;;;;;;;7.78;2.70;;;18.90;99.90;;;;;;5052554;28;20647;-61
2023/08/06 09:07:34;;;;;;;8.25;2.92;;;18.90;99.90;;;;;;5051481;28;20025;-60
2023/08/06 09:10:03;;;;;;;8.93;2.50;;;19.00;99.90;;;;;;5052855;28;20021;-60
2023/08/06 09:12:29;;;;;;;9.60;2.90;;;19.00;99.90;;;;;;5052824;28;20078;-61
2023/08/06 09:14:55;;;;;;;8.00;2.67;;;19.00;99.90;;;;;;5052716;28;20028;-61
2023/08/06 09:17:21;;;;;;;7.75;2.67;;;19.00;99.90;;;;;;5052759;28;20033;-61
2023/08/06 09:19:48;;;;;;;8.38;3.25;;;19.00;99.90;;;;;;5052155;28;20053;-61
2023/08/06 09:22:14;;;;;;;7.80;2.90;;;19.20;99.90;;;;;;5052483;28;20037;-60
2023/08/06 09:24:41;;;;;;;9.75;2.58;;;19.50;99.90;;;;;;5052523;28;20048;-61
2023/08/06 09:27:14;;;;;;;10.20;2.88;;;19.60;99.90;;;;;;5052503;28;20048;-61
2023/08/06 09:29:45;;;;;;;10.68;2.95;;;19.90;99.90;;;;;;5052246;28;20029;-60
2023/08/06 09:32:11;;;;;;;9.95;2.70;;;20.10;99.90;;;;;;5052064;28;20037;-61
2023/08/06 09:34:40;;;;;;;11.93;2.90;;;20.20;99.90;;;;;;5052276;28;20021;-61
2023/08/06 09:37:08;;;;;;;8.75;2.70;;;20.20;99.90;;;;;;5052208;28;20028;-60
2023/08/06 09:39:33;;;;;;;10.45;3.30;;;20.30;99.90;;;;;;5052554;28;20111;-60
2023/08/06 09:42:01;;;;;;;9.10;2.80;;;20.60;99.90;;;;;;5051995;28;20461;-60
2023/08/06 09:44:28;;;;;;;9.85;3.17;;;20.60;99.90;;;;;;5051955;28;20025;-61
2023/08/06 09:46:59;;;;;;;8.23;2.75;;;20.90;99.90;;;;;;5052119;28;20449;-60
2023/08/06 09:49:45;;;;;;;9.25;2.50;;;20.70;99.90;;;;;;5051749;28;20071;-61
2023/08/06 09:52:15;;;;;;;7.93;2.58;;;20.50;99.90;;;;;;5051999;28;20037;-61
2023/08/06 09:54:43;;;;;;;9.77;3.15;;;20.20;99.90;;;;;;5051778;28;20031;-61
2023/08/06 09:57:11;;;;;;;9.27;2.70;;;20.20;99.90;;;;;;5051883;28;20112;-60
2023/08/06 09:59:39;;;;;;;7.85;2.60;;;20.10;99.90;;;;;;5052066;28;20502;-61
2023/08/06 10:02:13;;;;;;;9.60;2.83;;;20.00;99.90;;;;;;5051316;28;20440;-61
2023/08/06 10:04:39;;;;;;;11.95;2.97;;;19.80;99.90;;;;;;5051687;28;20482;-60
2023/08/06 10:07:05;;;;;;;9.35;2.95;;;19.80;99.90;;;;;;5051823;28;20078;-60
2023/08/06 10:09:30;;;;;;;13.32;3.05;;;19.90;99.90;;;;;;5051873;28;20033;-60
2023/08/06 10:11:59;;;;;;;10.95;2.92;;;19.90;99.90;;;;;;5051708;28;20024;-61
2023/08/06 10:14:30;;;;;;;9.70;2.72;;;19.90;99.90;;;;;;5051357;28;20112;-60
2023/08/06 10:16:57;;;;;;;9.27;2.50;;;19.90;99.90;;;;;;5051228;28;20029;-60
2023/08/06 10:19:24;;;;;;;10.75;2.80;;;19.90;99.90;;;;;;5051624;28;20055;-60
2023/08/06 10:22:10;;;;;;;7.90;2.55;;;20.00;99.90;;;;;;5051735;28;20021;-60
2023/08/06 10:25:05;;;;;;;9.65;2.88;;;20.00;99.90;;;;;;5051273;28;20056;-61
2023/08/06 10:27:35;;;;;;;7.95;2.65;;;20.00;99.90;;;;;;5050539;28;20041;-61
2023/08/06 10:30:23;;;;;;;8.18;2.80;;;20.10;99.90;;;;;;5051635;28;20017;-60
2023/08/06 10:33:00;;;;;;;7.93;2.47;;;20.10;99.90;;;;;;5051504;28;20033;-61
2023/08/06 10:35:49;;;;;;;9.00;2.53;;;20.10;99.90;;;;;;5051336;28;20431;-61
2023/08/06 10:38:25;;;;;;;7.80;2.47;;;20.00;99.90;;;;;;5051180;28;20037;-61
2023/08/06 10:40:54;;;;;;;7.88;2.45;;;20.20;99.90;;;;;;5051112;28;20044;-60
2023/08/06 10:43:33;;;;;;;7.72;2.40;;;20.40;99.90;;;;;;5050396;28;20040;-60
2023/08/06 10:46:04;;;;;;;9.13;2.78;;;20.60;99.90;;;;;;5051287;28;20029;-61
2023/08/06 10:48:40;;;;;;;7.20;2.40;;;20.70;99.90;;;;;;5051108;28;20033;-61
2023/08/06 10:51:10;;;;;;;6.53;2.03;;;20.80;99.90;;;;;;5051195;28;20029;-60
2023/08/06 10:53:36;;;;;;;8.80;2.33;;;20.80;99.90;;;;;;5051067;28;20033;-60
2023/08/06 10:56:11;;;;;;;6.50;2.15;;;20.90;99.90;;;;;;5051019;28;20025;-60
2023/08/06 10:58:37;;;;;;;6.45;2.10;;;21.00;99.90;;;;;;5051019;28;20405;-60
2023/08/06 11:01:03;;;;;;;6.22;2.05;;;21.00;99.90;;;;;;5049635;28;20028;-61
2023/08/06 11:03:28;;;;;;;6.57;2.38;;;21.20;99.90;;;;;;5050979;28;20036;-60
2023/08/06 11:05:54;;;;;;;4.53;1.90;;;21.10;99.90;;;;;;5050977;28;20029;-60
2023/08/06 11:08:27;;;;;;;5.75;2.20;;;21.10;99.90;;;;;;5051025;28;20025;-61
2023/08/06 11:10:53;;;;;;;6.75;2.03;;;21.20;99.90;;;;;;5050794;28;20053;-60
2023/08/06 11:13:22;;;;;;;8.65;2.38;;;21.10;99.90;;;;;;5050732;28;20095;-60
2023/08/06 11:15:48;;;;;;;5.93;2.10;;;21.10;99.90;;;;;;5050706;28;20030;-60
2023/08/06 11:18:13;;;;;;;7.03;2.20;;;21.00;99.90;;;;;;5050776;28;20367;-61
2023/08/06 11:20:39;;;;;;;6.68;2.42;;;20.80;99.90;;;;;;5051209;28;20470;-61
2023/08/06 11:23:06;;;;;;;7.93;2.60;;;20.90;99.90;;;;;;5050543;28;20033;-61
2023/08/06 11:25:36;;;;;;;5.47;2.00;;;20.90;99.90;;;;;;5050745;28;20061;-61
2023/08/06 11:28:01;;;;;;;7.72;2.20;;;20.90;99.90;;;;;;5050821;28;20089;-60
2023/08/06 11:30:27;;;;;;;5.40;2.00;;;20.80;99.90;;;;;;5050684;28;20131;-60
2023/08/06 11:32:53;;;;;;;7.95;2.10;;;20.80;99.90;;;;;;5050712;28;20025;-61
2023/08/06 11:35:19;;;;;;;8.50;2.33;;;20.70;99.90;;;;;;5049614;28;20025;-60
2023/08/06 11:37:45;;;;;;;7.07;2.10;;;20.90;99.90;;;;;;5051035;28;20021;-61
2023/08/06 11:40:12;;;;;;;6.22;2.10;;;21.00;99.90;;;;;;5050485;28;20082;-60
2023/08/06 11:42:37;;;;;;;4.45;1.90;;;20.80;99.90;;;;;;5050594;28;20084;-60
2023/08/06 11:45:04;;;;;;;4.70;1.85;;;20.90;99.90;;;;;;5050322;28;20100;-61
2023/08/06 11:47:30;;;;;;;6.32;1.90;;;20.90;99.90;;;;;;5050547;28;20029;-61
2023/08/06 11:49:56;;;;;;;4.88;2.00;;;21.00;99.90;;;;;;5051024;28;20028;-61
2023/08/06 11:52:25;;;;;;;5.50;2.05;;;20.80;99.90;;;;;;5050513;28;20041;-60
2023/08/06 11:55:10;;;;;;;7.47;2.22;;;20.90;99.90;;;;;;5051942;28;20025;-61
2023/08/06 11:57:36;;;;;;;7.65;1.80;;;21.00;99.90;;;;;;5053786;28;20037;-60
2023/08/06 12:00:04;;;;;;;5.38;1.88;;;21.40;99.90;;;;;;5054269;28;20036;-60
2023/08/06 12:02:35;;;;;;;4.32;1.80;;;21.60;99.90;;;;;;5053162;28;20036;-61
2023/08/06 12:05:15;;;;;;;7.22;2.15;;;21.80;99.90;;;;;;5054184;28;20426;-60
2023/08/06 12:07:48;;;;;;;6.25;2.05;;;22.00;99.90;;;;;;5053980;28;20390;-60
2023/08/06 12:10:15;;;;;;;5.25;1.83;;;22.10;99.90;;;;;;5053747;28;20021;-61
2023/08/06 12:12:41;;;;;;;4.93;1.52;;;22.20;99.90;;;;;;5053614;28;20090;-60
2023/08/06 12:15:08;;;;;;;6.07;1.60;;;21.90;99.90;;;;;;5053778;28;20492;-60
2023/08/06 12:17:34;;;;;;;5.78;1.90;;;22.00;99.90;;;;;;5053749;28;20090;-61
2023/08/06 12:20:00;;;;;;;7.65;2.05;;;22.00;99.90;;;;;;5053831;28;20032;-60
2023/08/06 12:22:26;;;;;;;6.32;1.73;;;22.20;99.90;;;;;;5053612;28;20175;-60
2023/08/06 12:24:52;;;;;;;6.13;1.77;;;22.10;99.90;;;;;;5053440;28;20133;-60
2023/08/06 12:27:18;;;;;;;5.05;1.67;;;22.00;99.90;;;;;;5053750;28;20025;-61
2023/08/06 12:29:45;;;;;;;6.93;1.73;;;22.10;99.90;;;;;;5053600;28;20025;-60
2023/08/06 12:32:11;;;;;;;5.57;1.88;;;22.00;99.90;;;;;;5053500;28;20037;-61
2023/08/06 12:34:41;;;;;;;6.03;1.70;;;21.80;99.90;;;;;;5053495;28;20036;-58
2023/08/06 12:37:08;;;;;;;5.78;1.88;;;21.80;99.90;;;;;;5053512;28;20040;-60
2023/08/06 12:39:34;;;;;;;4.00;1.50;;;21.90;99.90;;;;;;5053207;28;20485;-60